Puget — AEQW — position and weather

sailwx.info

Track history (hours):
 
Tides and Currents Weather Stations Pressure Air Temp Water Temp Dewpoint Dewpoint Depression Visibility Wind Speed Wind Dir Waves Ship Positions

Puget

Last reported at 2015-Oct-30 00:05 UTC. Time now 2016-Feb-10 06:43 UTC.
Position N 47°40' W 122°24'.
Warning: this ship's position is months out of date.

Length 20 m; draft 0.2 m.

Type: Ship. MMSI: 369970510.

Date/timePositionNaut miles runAvg speedWind from/ knotsBaromVisibWave heightAir tempDewpointWater temp
2015-Oct-30 00:05N 47°40' W 122°24'0 0.3
2015-Oct-29 23:32N 47°40' W 122°24'0 0.2
2015-Oct-29 22:22N 47°40' W 122°24'0 0.0
2015-Oct-29 21:33N 47°40' W 122°24'0 0.0
2015-Oct-29 20:32N 47°40' W 122°24'1 0.7
2015-Oct-29 19:33N 47°41' W 122°25'6 1.4
2015-Oct-29 15:33N 47°44' W 122°32'7 6.8
2015-Oct-29 14:33N 47°40' W 122°24'0 0.0
2015-Oct-28 22:33N 47°40' W 122°24'4 4.1
2015-Oct-28 21:33N 47°37' W 122°29'7 7.4
2015-Oct-28 20:33N 47°31' W 122°24'5 5.5
2015-Oct-28 19:33N 47°26' W 122°22'2 1.7
2015-Oct-28 18:33N 47°24' W 122°23'5 4.7
2015-Oct-28 17:33N 47°28' W 122°26'7 6.8
2015-Oct-28 16:30N 47°35' W 122°24'3 3.5
2015-Oct-28 15:33N 47°39' W 122°26'2 1.9
2015-Oct-28 14:33N 47°40' W 122°24'0 0.0
2015-Oct-27 23:04N 47°40' W 122°24'0 0.2
2015-Oct-27 22:33N 47°40' W 122°24'0 0.2
2015-Oct-27 21:33N 47°40' W 122°24'3 2.4
2015-Oct-27 20:24N 47°37' W 122°23'0 0.1
2015-Oct-27 16:23N 47°37' W 122°22'3 3.2
2015-Oct-27 15:32N 47°40' W 122°24'  
Track history (hours):
 
Tides and Currents Weather Stations Pressure Air Temp Water Temp Dewpoint Dewpoint Depression Visibility Wind Speed Wind Dir Waves Ship Positions

Puget

Last reported at 2015-Oct-30 00:05 UTC. Time now 2016-Feb-10 06:43 UTC.
Position N 47°40' W 122°24'.
Warning: this ship's position is months out of date.

Length 20 m; draft 0.2 m.

Type: Ship. MMSI: 369970510.

Date/timePositionNaut miles runAvg speedWind from/ knotsBaromVisibWave heightAir tempDewpointWater temp
2015-Oct-30 00:05N 47°40' W 122°24'0 0.3
2015-Oct-29 23:32N 47°40' W 122°24'0 0.2
2015-Oct-29 22:22N 47°40' W 122°24'0 0.0
2015-Oct-29 21:33N 47°40' W 122°24'0 0.0
2015-Oct-29 20:32N 47°40' W 122°24'1 0.7
2015-Oct-29 19:33N 47°41' W 122°25'6 1.4
2015-Oct-29 15:33N 47°44' W 122°32'7 6.8
2015-Oct-29 14:33N 47°40' W 122°24'0 0.0
2015-Oct-28 22:33N 47°40' W 122°24'4 4.1
2015-Oct-28 21:33N 47°37' W 122°29'7 7.4
2015-Oct-28 20:33N 47°31' W 122°24'5 5.5
2015-Oct-28 19:33N 47°26' W 122°22'2 1.7
2015-Oct-28 18:33N 47°24' W 122°23'5 4.7
2015-Oct-28 17:33N 47°28' W 122°26'7 6.8
2015-Oct-28 16:30N 47°35' W 122°24'3 3.5
2015-Oct-28 15:33N 47°39' W 122°26'2 1.9
2015-Oct-28 14:33N 47°40' W 122°24'0 0.0
2015-Oct-27 23:04N 47°40' W 122°24'0 0.2
2015-Oct-27 22:33N 47°40' W 122°24'0 0.2
2015-Oct-27 21:33N 47°40' W 122°24'3 2.4
2015-Oct-27 20:24N 47°37' W 122°23'0 0.1
2015-Oct-27 16:23N 47°37' W 122°22'3 3.2
2015-Oct-27 15:32N 47°40' W 122°24'  

Dump ship's entire track history